Time;durP1;ratioP1;P1;durP2;ratioP2;P2;SDS_P1;SDS_P2;PMS_P1;PMS_P2;Temp;Humidity;BMP_temperature;BMP_pressure;BME280_temperature;BME280_humidity;BME280_pressure;Samples;Min_cycle;Max_cycle;Signal;HPM_P1;HPM_P2
2023/09/04 00:00:33;;;;;;;10.13;4.43;;;14.30;99.90;;;;;;5085892;28;20032;-70
2023/09/04 00:02:59;;;;;;;8.02;4.40;;;14.20;99.90;;;;;;5086171;28;20040;-70
2023/09/04 00:05:24;;;;;;;12.75;4.68;;;14.20;99.90;;;;;;5085787;28;20035;-70
2023/09/04 00:07:50;;;;;;;10.15;4.95;;;14.20;99.90;;;;;;5085961;28;20028;-72
2023/09/04 00:10:16;;;;;;;11.57;5.28;;;14.20;99.90;;;;;;5080741;28;20082;-71
2023/09/04 00:12:41;;;;;;;11.60;4.85;;;14.20;99.90;;;;;;5086747;28;20032;-70
2023/09/04 00:15:07;;;;;;;9.43;4.68;;;14.20;99.90;;;;;;5087282;28;20032;-70
2023/09/04 00:17:33;;;;;;;7.63;4.32;;;14.20;99.90;;;;;;5087413;28;20089;-71
2023/09/04 00:19:59;;;;;;;12.75;5.30;;;14.30;99.90;;;;;;5084830;28;20098;-71
2023/09/04 00:22:27;;;;;;;43.58;5.20;;;14.30;99.90;;;;;;5087058;28;20025;-70
2023/09/04 00:24:53;;;;;;;48.53;5.07;;;14.20;99.90;;;;;;5087232;28;20036;-70
2023/09/04 00:27:19;;;;;;;8.32;3.85;;;14.00;99.90;;;;;;5088112;28;20031;-71
2023/09/04 00:29:46;;;;;;;8.52;4.15;;;13.80;99.90;;;;;;5084334;28;20081;-70
2023/09/04 00:32:12;;;;;;;10.23;4.13;;;13.70;99.90;;;;;;5082546;28;20111;-70
2023/09/04 00:34:37;;;;;;;5.93;3.65;;;13.70;99.90;;;;;;5085507;28;20465;-70
2023/09/04 00:37:04;;;;;;;7.32;4.13;;;13.70;99.90;;;;;;5085580;28;20032;-70
2023/09/04 00:39:29;;;;;;;7.43;3.80;;;13.80;99.90;;;;;;5087709;28;20048;-70
2023/09/04 00:41:55;;;;;;;6.85;3.85;;;13.80;99.90;;;;;;5087256;28;20036;-70
2023/09/04 00:44:20;;;;;;;7.97;3.75;;;13.70;99.90;;;;;;5081510;28;20047;-71
2023/09/04 00:46:46;;;;;;;9.05;4.22;;;13.60;99.90;;;;;;5089295;28;20128;-72
2023/09/04 00:49:14;;;;;;;7.95;4.13;;;13.70;99.90;;;;;;5091248;28;20386;-71
2023/09/04 00:51:39;;;;;;;8.20;4.25;;;13.70;99.90;;;;;;5089860;28;20024;-70
2023/09/04 00:54:07;;;;;;;7.30;4.50;;;13.70;99.90;;;;;;5090820;28;20042;-70
2023/09/04 00:56:33;;;;;;;8.77;4.25;;;13.70;99.90;;;;;;5088530;28;20054;-70
2023/09/04 00:58:59;;;;;;;8.75;4.78;;;13.70;99.90;;;;;;5089917;28;20555;-70
2023/09/04 01:01:26;;;;;;;11.38;4.93;;;13.60;99.90;;;;;;5087944;28;20030;-71
2023/09/04 01:03:51;;;;;;;8.57;4.68;;;13.60;99.90;;;;;;5085693;28;21907;-71
2023/09/04 01:06:17;;;;;;;7.90;4.82;;;13.60;99.90;;;;;;5087993;28;20119;-71
2023/09/04 01:08:43;;;;;;;7.85;4.80;;;13.60;99.90;;;;;;5088675;28;20382;-71
2023/09/04 01:11:20;;;;;;;8.45;4.78;;;13.50;99.90;;;;;;5089048;28;20063;-71
2023/09/04 01:13:55;;;;;;;10.93;5.05;;;13.50;99.90;;;;;;5087763;28;20039;-71
2023/09/04 01:16:22;;;;;;;10.43;4.82;;;13.50;99.90;;;;;;5088289;28;20055;-73
2023/09/04 01:18:48;;;;;;;10.57;4.80;;;13.50;99.90;;;;;;5087678;28;20101;-71
2023/09/04 01:21:14;;;;;;;7.82;4.53;;;13.50;99.90;;;;;;5086389;28;20028;-71
2023/09/04 01:23:40;;;;;;;10.45;4.35;;;13.40;99.90;;;;;;5089295;28;20103;-70
2023/09/04 01:26:13;;;;;;;6.70;4.22;;;13.40;99.90;;;;;;5091034;28;20031;-71
2023/09/04 01:28:58;;;;;;;10.65;4.32;;;13.50;99.90;;;;;;5071287;28;20035;-71
2023/09/04 01:31:29;;;;;;;7.22;4.40;;;13.40;99.90;;;;;;5070828;28;20360;-72
2023/09/04 01:33:59;;;;;;;7.20;4.65;;;13.40;99.90;;;;;;5089054;28;20032;-70
2023/09/04 01:36:32;;;;;;;9.60;5.40;;;13.30;99.90;;;;;;5088721;28;20068;-72
2023/09/04 01:38:58;;;;;;;11.45;4.80;;;13.30;99.90;;;;;;5089219;28;20093;-71
2023/09/04 01:41:24;;;;;;;11.50;5.03;;;13.30;99.90;;;;;;5089274;28;20117;-73
2023/09/04 01:43:49;;;;;;;8.20;4.93;;;13.30;99.90;;;;;;5087363;28;20031;-70
2023/09/04 01:46:15;;;;;;;10.57;5.43;;;13.30;99.90;;;;;;5089954;28;20067;-69
2023/09/04 01:48:41;;;;;;;16.67;4.93;;;13.40;99.90;;;;;;5088773;28;20052;-71
2023/09/04 01:51:07;;;;;;;11.35;5.60;;;13.40;99.90;;;;;;5088985;28;20032;-71
2023/09/04 01:53:32;;;;;;;12.35;5.70;;;13.50;99.90;;;;;;5068604;28;20115;-72
2023/09/04 01:55:59;;;;;;;12.02;5.50;;;13.50;99.90;;;;;;5087820;28;20396;-69
2023/09/04 01:58:25;;;;;;;8.70;5.10;;;13.50;99.90;;;;;;5089026;28;20047;-73
2023/09/04 02:00:51;;;;;;;9.38;4.95;;;13.50;99.90;;;;;;5088970;28;20040;-70
2023/09/04 02:03:17;;;;;;;13.43;4.50;;;13.50;99.90;;;;;;5088863;28;20483;-70
2023/09/04 02:05:42;;;;;;;8.10;4.90;;;13.50;99.90;;;;;;5088591;28;20028;-71
2023/09/04 02:08:08;;;;;;;12.57;5.03;;;13.50;99.90;;;;;;5087926;28;20035;-71
2023/09/04 02:10:35;;;;;;;12.90;5.15;;;13.40;99.90;;;;;;5071300;28;20105;-71
2023/09/04 02:13:01;;;;;;;8.60;5.25;;;13.40;99.90;;;;;;5089441;28;20032;-72
2023/09/04 02:15:28;;;;;;;47.58;6.60;;;13.40;99.90;;;;;;5087615;28;20031;-72
2023/09/04 02:17:54;;;;;;;11.55;5.20;;;13.30;99.90;;;;;;5087683;28;20666;-71
2023/09/04 02:20:20;;;;;;;9.77;5.35;;;13.30;99.90;;;;;;5083213;28;20070;-71
2023/09/04 02:22:45;;;;;;;7.82;4.88;;;13.30;99.90;;;;;;5082487;28;20024;-71
2023/09/04 02:25:11;;;;;;;7.68;4.93;;;13.30;99.90;;;;;;5085652;28;20046;-70
2023/09/04 02:27:36;;;;;;;8.63;5.00;;;13.30;99.90;;;;;;5088431;28;20032;-70
2023/09/04 02:30:03;;;;;;;11.27;4.97;;;13.30;99.90;;;;;;5089510;28;20024;-72
2023/09/04 02:32:29;;;;;;;10.88;4.90;;;13.20;99.90;;;;;;5086925;28;20038;-71
2023/09/04 02:34:55;;;;;;;7.97;4.65;;;13.20;99.90;;;;;;5088903;28;20032;-70
2023/09/04 02:37:20;;;;;;;7.85;4.82;;;13.20;99.90;;;;;;5089653;28;20051;-71
2023/09/04 02:39:46;;;;;;;9.13;4.88;;;13.10;99.90;;;;;;5087261;28;20540;-71
2023/09/04 02:42:12;;;;;;;8.40;5.00;;;13.10;99.90;;;;;;5085926;28;20486;-71
2023/09/04 02:44:37;;;;;;;10.90;6.20;;;13.10;99.90;;;;;;5088593;28;20020;-71
2023/09/04 02:47:03;;;;;;;9.65;5.40;;;13.10;99.90;;;;;;5089183;28;20044;-70
2023/09/04 02:49:29;;;;;;;9.55;4.82;;;13.10;99.90;;;;;;5083281;28;20035;-71
2023/09/04 02:51:54;;;;;;;12.63;5.15;;;13.20;99.90;;;;;;5085800;28;20161;-70
2023/09/04 02:54:20;;;;;;;10.00;5.75;;;13.20;99.90;;;;;;5088949;28;20545;-72
2023/09/04 02:56:45;;;;;;;23.67;5.95;;;13.20;99.90;;;;;;5085307;28;20036;-72
2023/09/04 02:59:12;;;;;;;16.98;5.10;;;13.20;99.90;;;;;;5082413;28;20117;-72
2023/09/04 03:01:38;;;;;;;8.52;4.93;;;13.20;99.90;;;;;;5082738;28;20056;-73
2023/09/04 03:04:03;;;;;;;9.20;5.32;;;13.10;99.90;;;;;;5085885;28;20500;-72
2023/09/04 03:06:29;;;;;;;11.85;4.88;;;13.10;99.90;;;;;;5084458;28;20028;-73
2023/09/04 03:08:55;;;;;;;8.13;4.75;;;13.10;99.90;;;;;;5089121;28;20438;-71
2023/09/04 03:11:21;;;;;;;9.40;4.78;;;13.00;99.90;;;;;;5085416;28;20036;-71
2023/09/04 03:13:46;;;;;;;11.57;4.57;;;13.00;99.90;;;;;;5086825;28;20059;-72
2023/09/04 03:16:12;;;;;;;10.98;4.70;;;12.90;99.90;;;;;;5088085;28;20040;-71
2023/09/04 03:18:38;;;;;;;9.43;4.93;;;12.90;99.90;;;;;;5086978;28;20043;-71
2023/09/04 03:21:05;;;;;;;10.07;5.88;;;12.90;99.90;;;;;;5089230;28;20045;-71
2023/09/04 03:23:32;;;;;;;16.35;6.65;;;12.90;99.90;;;;;;5085393;28;20124;-72
2023/09/04 03:25:58;;;;;;;13.98;7.10;;;13.00;99.90;;;;;;5086346;28;20518;-71
2023/09/04 03:28:23;;;;;;;10.93;6.35;;;13.00;99.90;;;;;;5085875;28;20063;-71
2023/09/04 03:30:49;;;;;;;13.20;6.13;;;13.00;99.90;;;;;;5070205;28;20645;-71
2023/09/04 03:33:15;;;;;;;11.98;6.20;;;13.00;99.90;;;;;;5088837;28;20081;-70
2023/09/04 03:35:41;;;;;;;10.88;5.65;;;13.00;99.90;;;;;;5084477;28;20065;-72
2023/09/04 03:38:06;;;;;;;10.73;6.18;;;13.00;99.90;;;;;;5084309;28;20043;-71
2023/09/04 03:40:32;;;;;;;11.63;6.97;;;13.00;99.90;;;;;;5069545;28;20412;-72
2023/09/04 03:42:57;;;;;;;10.73;6.85;;;13.10;99.90;;;;;;5088593;28;20024;-71
2023/09/04 03:45:23;;;;;;;14.20;7.35;;;13.10;99.90;;;;;;5085923;28;20110;-72
2023/09/04 03:47:49;;;;;;;10.48;6.35;;;13.20;99.90;;;;;;5086382;28;20278;-70
2023/09/04 03:50:15;;;;;;;14.38;6.30;;;13.10;99.90;;;;;;5087156;28;20070;-71
2023/09/04 03:52:42;;;;;;;11.25;6.20;;;13.10;99.90;;;;;;5087633;28;20032;-71
2023/09/04 03:55:10;;;;;;;10.45;5.85;;;13.10;99.90;;;;;;5088524;28;20140;-71
2023/09/04 03:57:36;;;;;;;11.50;6.50;;;13.00;99.90;;;;;;5086486;28;20488;-70
2023/09/04 04:00:14;;;;;;;13.20;6.75;;;13.00;99.90;;;;;;5083576;28;20032;-70
2023/09/04 04:02:40;;;;;;;11.45;6.30;;;13.00;99.90;;;;;;5074273;28;20040;-70
2023/09/04 04:05:06;;;;;;;15.00;7.47;;;12.90;99.90;;;;;;5087735;28;20111;-69
2023/09/04 04:07:32;;;;;;;16.48;7.22;;;13.00;99.90;;;;;;5089715;28;20032;-72
2023/09/04 04:09:58;;;;;;;11.98;7.20;;;13.00;99.90;;;;;;5087876;28;20028;-72
2023/09/04 04:12:24;;;;;;;13.70;7.50;;;13.00;99.90;;;;;;5087437;28;20032;-72
2023/09/04 04:14:54;;;;;;;14.35;7.85;;;13.00;99.90;;;;;;5090186;28;20705;-71
2023/09/04 04:17:19;;;;;;;19.13;8.55;;;13.10;99.90;;;;;;5091330;28;20071;-71
2023/09/04 04:19:45;;;;;;;14.27;7.22;;;13.20;99.90;;;;;;5091018;28;20074;-73
2023/09/04 04:22:11;;;;;;;12.38;7.10;;;13.20;99.90;;;;;;5090681;28;20036;-71
2023/09/04 04:24:36;;;;;;;15.15;7.45;;;13.20;99.90;;;;;;5090344;28;20101;-72
2023/09/04 04:27:02;;;;;;;14.25;7.43;;;13.20;99.90;;;;;;5091774;28;20035;-71
2023/09/04 04:29:28;;;;;;;16.38;8.05;;;13.10;99.90;;;;;;5092204;28;20335;-72
2023/09/04 04:31:53;;;;;;;20.02;7.32;;;13.00;99.90;;;;;;5089883;28;20055;-72
2023/09/04 04:34:19;;;;;;;17.77;8.02;;;13.00;99.90;;;;;;5089252;28;20089;-72
2023/09/04 04:36:45;;;;;;;14.70;7.70;;;12.90;99.90;;;;;;5089751;28;20039;-73
2023/09/04 04:39:10;;;;;;;16.75;7.88;;;13.00;99.90;;;;;;5092133;28;20028;-71
2023/09/04 04:41:36;;;;;;;12.95;6.93;;;12.90;99.90;;;;;;5091299;28;20040;-73
2023/09/04 04:44:01;;;;;;;17.48;7.72;;;12.90;99.90;;;;;;5090033;28;20478;-74
2023/09/04 04:46:27;;;;;;;13.43;6.97;;;13.00;99.90;;;;;;5086239;28;20035;-74
2023/09/04 04:48:53;;;;;;;16.52;7.60;;;13.00;99.90;;;;;;5065289;28;20099;-73
2023/09/04 04:51:18;;;;;;;17.38;8.52;;;13.00;99.90;;;;;;5069268;28;20040;-72
2023/09/04 04:53:44;;;;;;;18.17;8.32;;;13.00;99.90;;;;;;5070457;28;20489;-71
2023/09/04 04:56:09;;;;;;;14.45;7.28;;;13.10;99.90;;;;;;5068905;28;20028;-71
2023/09/04 04:58:35;;;;;;;19.13;6.93;;;13.10;99.90;;;;;;5069834;28;20032;-74
2023/09/04 05:01:01;;;;;;;17.65;7.22;;;13.00;99.90;;;;;;5068449;28;20055;-71
2023/09/04 05:03:26;;;;;;;13.10;5.78;;;12.90;99.90;;;;;;5069913;28;20024;-72
2023/09/04 05:05:52;;;;;;;14.15;6.70;;;12.80;99.90;;;;;;5069327;28;20040;-72
2023/09/04 05:08:17;;;;;;;14.93;7.10;;;12.70;99.90;;;;;;5070929;28;20032;-72
2023/09/04 05:10:43;;;;;;;13.32;6.15;;;12.70;99.90;;;;;;5067063;28;20032;-69
2023/09/04 05:13:09;;;;;;;16.27;8.02;;;12.70;99.90;;;;;;5066341;28;20397;-71
2023/09/04 05:15:35;;;;;;;15.02;7.10;;;12.60;99.90;;;;;;5068475;28;20040;-73
2023/09/04 05:18:00;;;;;;;11.48;6.20;;;12.50;99.90;;;;;;5070714;28;20043;-71
2023/09/04 05:20:26;;;;;;;12.23;6.35;;;12.50;99.90;;;;;;5068851;28;20035;-72
2023/09/04 05:22:52;;;;;;;12.45;6.53;;;12.60;99.90;;;;;;5068876;28;20040;-71
2023/09/04 05:25:17;;;;;;;13.02;6.65;;;12.60;99.90;;;;;;5067576;28;20029;-71
2023/09/04 05:27:43;;;;;;;14.55;6.80;;;12.70;99.90;;;;;;5068957;28;20109;-72
2023/09/04 05:30:09;;;;;;;13.15;6.43;;;12.80;99.90;;;;;;5051912;28;20033;-71
2023/09/04 05:32:34;;;;;;;14.02;6.55;;;12.90;99.90;;;;;;5066432;28;20391;-72
2023/09/04 05:35:00;;;;;;;12.40;7.25;;;12.90;99.90;;;;;;5069614;28;20047;-71
2023/09/04 05:37:25;;;;;;;12.35;6.72;;;13.10;99.90;;;;;;5051024;28;20795;-71
2023/09/04 05:39:52;;;;;;;11.38;6.78;;;13.10;99.90;;;;;;5051779;28;20033;-73
2023/09/04 05:42:18;;;;;;;13.18;6.80;;;13.20;99.90;;;;;;5069349;28;20043;-72
2023/09/04 05:44:43;;;;;;;13.70;6.57;;;13.30;99.90;;;;;;5066817;28;20024;-72
2023/09/04 05:47:09;;;;;;;12.95;7.25;;;13.40;99.90;;;;;;5074382;28;20047;-70
2023/09/04 05:49:34;;;;;;;14.15;7.25;;;13.60;99.90;;;;;;5090614;28;20127;-74
2023/09/04 05:52:00;;;;;;;12.48;7.13;;;13.70;99.90;;;;;;5089899;28;20024;-73
2023/09/04 05:54:26;;;;;;;12.80;6.70;;;13.80;99.90;;;;;;5090597;28;20036;-72
2023/09/04 05:56:51;;;;;;;11.82;6.28;;;13.90;99.90;;;;;;5087059;28;20592;-72
2023/09/04 05:59:17;;;;;;;11.85;6.10;;;14.10;99.90;;;;;;5090565;28;20384;-70
2023/09/04 06:01:43;;;;;;;11.32;5.78;;;14.20;99.90;;;;;;5089773;28;20397;-71
2023/09/04 06:04:09;;;;;;;11.07;5.95;;;14.30;99.90;;;;;;5088999;28;20039;-72
2023/09/04 06:06:34;;;;;;;11.60;6.63;;;14.30;99.90;;;;;;5089282;28;20031;-73
2023/09/04 06:09:00;;;;;;;13.95;7.32;;;14.30;99.90;;;;;;5087788;28;20638;-71
2023/09/04 06:11:26;;;;;;;15.48;6.25;;;14.30;99.90;;;;;;5088523;28;20035;-70
2023/09/04 06:13:51;;;;;;;11.20;6.90;;;14.30;99.90;;;;;;5089551;28;20032;-72
2023/09/04 06:16:21;;;;;;;13.43;7.60;;;14.40;99.90;;;;;;5089130;28;20401;-71
2023/09/04 06:18:46;;;;;;;14.57;7.65;;;14.50;99.90;;;;;;5089376;28;20028;-71
2023/09/04 06:21:12;;;;;;;15.85;8.15;;;14.70;99.90;;;;;;5069935;28;20590;-70
2023/09/04 06:23:38;;;;;;;15.20;7.80;;;14.90;99.90;;;;;;5089576;28;20032;-74
2023/09/04 06:26:04;;;;;;;13.82;8.00;;;15.00;99.90;;;;;;5069330;28;20046;-72
2023/09/04 06:28:30;;;;;;;14.73;8.38;;;15.10;99.90;;;;;;5089980;28;20024;-71
2023/09/04 06:30:56;;;;;;;18.27;7.75;;;15.20;99.90;;;;;;5087875;28;20032;-72
2023/09/04 06:33:25;;;;;;;14.25;7.75;;;15.30;99.90;;;;;;5088809;28;20035;-71
2023/09/04 06:35:50;;;;;;;16.15;8.07;;;15.40;99.90;;;;;;5082872;28;20097;-71
2023/09/04 06:38:16;;;;;;;12.07;7.65;;;15.50;99.90;;;;;;5089639;28;20032;-71
2023/09/04 06:40:42;;;;;;;12.10;7.30;;;15.70;99.90;;;;;;5089005;28;20115;-75
2023/09/04 06:43:08;;;;;;;12.20;7.65;;;15.80;99.90;;;;;;5089646;28;20050;-70
2023/09/04 06:45:37;;;;;;;12.73;7.53;;;16.00;99.90;;;;;;5088514;28;20032;-71
2023/09/04 06:48:04;;;;;;;10.40;7.13;;;16.20;99.90;;;;;;5087524;28;20058;-72
2023/09/04 06:50:30;;;;;;;11.85;7.68;;;16.30;99.90;;;;;;5089777;28;20099;-72
2023/09/04 06:52:55;;;;;;;11.57;7.43;;;16.40;99.90;;;;;;5088412;28;20071;-72
2023/09/04 06:55:21;;;;;;;15.35;7.10;;;16.60;99.90;;;;;;5085853;28;20028;-71
2023/09/04 06:57:46;;;;;;;12.68;7.05;;;16.60;99.90;;;;;;5070461;28;20036;-71
2023/09/04 07:00:13;;;;;;;13.77;7.40;;;16.70;99.90;;;;;;5088084;28;20028;-70
2023/09/04 07:02:39;;;;;;;12.75;7.03;;;16.80;99.90;;;;;;5068290;28;20119;-71
2023/09/04 07:05:07;;;;;;;11.85;7.20;;;16.80;99.90;;;;;;5087609;28;20036;-71
2023/09/04 07:07:35;;;;;;;11.38;7.22;;;16.90;99.90;;;;;;5087868;28;20101;-71
2023/09/04 07:10:05;;;;;;;10.88;7.13;;;16.90;99.90;;;;;;5083977;28;20028;-72
2023/09/04 07:12:40;;;;;;;10.97;7.20;;;17.00;99.90;;;;;;5087565;28;20560;-70
2023/09/04 07:15:06;;;;;;;16.13;7.10;;;17.00;99.90;;;;;;5088544;28;20129;-70
2023/09/04 07:17:32;;;;;;;12.82;7.43;;;17.10;99.90;;;;;;5086679;28;20077;-71
2023/09/04 07:19:58;;;;;;;14.05;7.60;;;17.20;99.90;;;;;;5086340;28;20036;-70
2023/09/04 07:22:26;;;;;;;13.30;7.18;;;17.30;99.90;;;;;;5087367;28;20103;-69
2023/09/04 07:24:52;;;;;;;10.77;7.15;;;17.60;99.90;;;;;;5086761;28;20044;-70
2023/09/04 07:27:18;;;;;;;10.07;6.53;;;17.70;99.90;;;;;;5087861;28;20109;-72
2023/09/04 07:29:44;;;;;;;15.07;7.38;;;17.90;99.90;;;;;;5088668;28;20042;-75
2023/09/04 07:32:09;;;;;;;9.77;6.65;;;18.00;99.90;;;;;;5088725;28;20020;-72
2023/09/04 07:34:36;;;;;;;9.65;6.75;;;18.10;99.90;;;;;;5089149;28;20421;-72
2023/09/04 07:37:01;;;;;;;11.65;6.32;;;18.10;99.90;;;;;;5083842;28;20050;-72
2023/09/04 07:39:28;;;;;;;11.10;6.57;;;18.30;99.90;;;;;;5085597;28;20028;-71
2023/09/04 07:41:56;;;;;;;10.32;5.90;;;18.40;99.90;;;;;;5087971;28;20032;-71
2023/09/04 07:44:21;;;;;;;10.73;6.18;;;18.60;99.90;;;;;;5069677;28;20062;-71
2023/09/04 07:46:47;;;;;;;11.63;6.75;;;18.70;99.90;;;;;;5086739;28;20484;-70
2023/09/04 07:49:13;;;;;;;10.43;6.47;;;18.80;99.90;;;;;;5086833;28;20032;-72
2023/09/04 07:51:39;;;;;;;10.07;6.68;;;18.90;99.90;;;;;;5087151;28;20032;-71
2023/09/04 07:54:05;;;;;;;9.40;6.68;;;19.00;99.90;;;;;;5087621;28;20024;-70
2023/09/04 07:56:31;;;;;;;14.43;5.57;;;19.10;99.90;;;;;;5086133;28;20103;-71
2023/09/04 07:58:56;;;;;;;9.85;6.07;;;19.30;99.90;;;;;;5084246;28;20115;-70
2023/09/04 08:01:22;;;;;;;9.30;5.90;;;19.30;99.90;;;;;;5085421;28;20162;-71
2023/09/04 08:03:48;;;;;;;8.02;5.80;;;19.40;99.90;;;;;;5073804;28;20077;-69
2023/09/04 08:06:13;;;;;;;9.55;6.35;;;19.50;99.90;;;;;;5088991;28;20028;-70
2023/09/04 08:08:39;;;;;;;11.52;6.22;;;19.70;99.90;;;;;;5088521;28;20035;-71
2023/09/04 08:11:04;;;;;;;9.55;5.47;;;19.70;99.90;;;;;;5087693;28;20099;-71
2023/09/04 08:13:31;;;;;;;12.48;6.15;;;19.70;99.90;;;;;;5087557;28;20388;-70
2023/09/04 08:15:57;;;;;;;9.40;5.85;;;19.80;99.90;;;;;;5086470;28;20547;-72
2023/09/04 08:18:23;;;;;;;8.70;5.57;;;19.90;99.90;;;;;;5086059;28;20040;-70
2023/09/04 08:20:49;;;;;;;11.20;6.07;;;20.00;99.90;;;;;;5087911;28;20032;-68
2023/09/04 08:23:15;;;;;;;7.43;5.60;;;20.20;99.90;;;;;;5087019;28;20123;-71
2023/09/04 08:25:41;;;;;;;8.48;5.43;;;20.20;99.90;;;;;;5085212;28;20127;-68
2023/09/04 08:28:06;;;;;;;10.63;4.85;;;20.40;99.90;;;;;;5083480;28;20048;-71
2023/09/04 08:30:32;;;;;;;9.60;5.40;;;20.50;99.90;;;;;;5082971;28;20085;-67
2023/09/04 08:32:58;;;;;;;7.38;5.18;;;20.50;99.90;;;;;;5087403;28;20020;-69
2023/09/04 08:35:29;;;;;;;8.07;5.40;;;20.60;99.90;;;;;;5088124;28;20036;-69
2023/09/04 08:37:55;;;;;;;6.90;4.90;;;20.60;99.90;;;;;;5087080;28;20431;-69
2023/09/04 08:40:21;;;;;;;7.28;5.10;;;20.70;99.90;;;;;;5069151;28;20475;-68
2023/09/04 08:42:50;;;;;;;8.15;5.43;;;20.80;99.90;;;;;;5084634;28;20024;-71
2023/09/04 08:45:17;;;;;;;6.13;4.88;;;20.80;99.90;;;;;;5084027;28;20090;-68
2023/09/04 08:47:43;;;;;;;9.05;4.97;;;21.00;99.90;;;;;;5086655;28;20040;-70
2023/09/04 08:50:13;;;;;;;7.38;4.80;;;21.10;99.90;;;;;;5086542;28;20040;-70
2023/09/04 08:52:40;;;;;;;7.80;4.97;;;21.10;99.90;;;;;;5086647;28;20075;-69
2023/09/04 08:55:07;;;;;;;6.03;4.75;;;21.10;99.90;;;;;;5086363;28;20290;-72
2023/09/04 08:57:33;;;;;;;6.75;4.65;;;21.20;99.90;;;;;;5087071;28;20400;-71
2023/09/04 09:00:00;;;;;;;7.38;4.95;;;21.40;99.90;;;;;;5087401;28;20107;-69
2023/09/04 09:02:26;;;;;;;7.20;4.57;;;21.50;99.90;;;;;;5090829;28;20028;-72
2023/09/04 09:04:52;;;;;;;6.88;4.75;;;21.50;99.90;;;;;;5090866;28;20186;-71
2023/09/04 09:07:20;;;;;;;6.32;4.53;;;21.60;99.90;;;;;;5090632;28;20028;-73
2023/09/04 09:09:49;;;;;;;8.15;4.35;;;21.60;99.90;;;;;;5087540;28;20024;-71
2023/09/04 09:12:15;;;;;;;6.27;4.57;;;21.60;99.90;;;;;;5088288;28;20068;-71
2023/09/04 09:14:41;;;;;;;8.00;4.72;;;21.70;99.90;;;;;;5091456;28;20786;-73
2023/09/04 09:17:13;;;;;;;6.20;4.47;;;21.60;99.90;;;;;;5089977;28;20536;-72
2023/09/04 09:19:39;;;;;;;7.00;4.65;;;21.70;99.90;;;;;;5087405;28;20034;-72
2023/09/04 09:22:21;;;;;;;6.80;4.68;;;21.80;99.90;;;;;;5090508;28;20442;-72
2023/09/04 09:25:01;;;;;;;7.57;4.50;;;21.90;99.90;;;;;;5089533;28;20032;-72
2023/09/04 09:27:32;;;;;;;6.85;4.80;;;22.00;99.90;;;;;;5090276;28;20035;-71
2023/09/04 09:30:02;;;;;;;5.68;4.20;;;22.20;99.90;;;;;;5070639;28;20391;-72
2023/09/04 09:32:33;;;;;;;6.18;4.18;;;22.30;99.90;;;;;;5091051;28;20027;-71
2023/09/04 09:35:01;;;;;;;6.47;4.13;;;22.50;99.90;;;;;;5089007;28;20028;-69
2023/09/04 09:37:30;;;;;;;6.13;4.47;;;22.60;99.90;;;;;;5089050;28;20027;-72
2023/09/04 09:39:56;;;;;;;6.93;4.63;;;22.70;99.90;;;;;;5087767;28;20358;-69
2023/09/04 09:42:23;;;;;;;7.28;4.32;;;22.60;99.90;;;;;;5090680;28;20105;-70
2023/09/04 09:44:51;;;;;;;6.57;4.03;;;22.60;99.90;;;;;;5087677;28;20031;-71
2023/09/04 09:47:17;;;;;;;8.52;5.68;;;22.60;99.90;;;;;;5086139;28;20044;-70
2023/09/04 09:49:43;;;;;;;5.90;4.50;;;22.70;99.90;;;;;;5088001;28;20032;-70
2023/09/04 09:52:10;;;;;;;7.18;4.53;;;22.90;99.90;;;;;;5086355;28;20086;-71
2023/09/04 09:54:38;;;;;;;6.75;4.28;;;23.00;99.90;;;;;;5085967;28;20111;-70
2023/09/04 09:57:08;;;;;;;5.10;4.18;;;23.20;99.90;;;;;;5089659;28;20028;-71
2023/09/04 09:59:36;;;;;;;5.88;4.30;;;23.30;99.90;;;;;;5084931;28;20040;-71
2023/09/04 10:02:03;;;;;;;8.80;4.55;;;23.50;99.90;;;;;;5088844;28;20039;-70
2023/09/04 10:04:31;;;;;;;6.63;4.43;;;23.50;99.90;;;;;;5088254;28;20042;-71
2023/09/04 10:06:59;;;;;;;5.85;3.70;;;23.60;99.90;;;;;;5085184;28;20040;-71
2023/09/04 10:09:27;;;;;;;10.23;4.40;;;23.60;99.90;;;;;;5087535;28;20040;-70
2023/09/04 10:12:32;;;;;;;6.93;4.22;;;23.70;99.90;;;;;;5088274;28;20028;-72
2023/09/04 10:14:59;;;;;;;5.40;4.13;;;23.80;99.90;;;;;;5042987;28;20064;-70
2023/09/04 10:17:35;;;;;;;4.65;3.38;;;23.90;99.90;;;;;;5069588;28;20484;-70
2023/09/04 10:20:04;;;;;;;5.53;3.88;;;24.00;99.90;;;;;;5081183;28;20136;-72
2023/09/04 10:22:36;;;;;;;6.55;4.47;;;24.00;99.90;;;;;;5088423;28;20032;-71
2023/09/04 10:25:27;;;;;;;7.55;3.90;;;24.10;99.30;;;;;;5080421;28;20044;-71
2023/09/04 10:28:02;;;;;;;5.30;3.45;;;24.00;98.30;;;;;;5059810;28;20040;-72
2023/09/04 10:30:34;;;;;;;7.55;3.30;;;24.20;96.70;;;;;;5088371;28;20020;-70
2023/09/04 10:33:00;;;;;;;6.18;3.80;;;24.30;96.90;;;;;;5083547;28;20033;-69
2023/09/04 10:35:26;;;;;;;5.32;3.55;;;24.30;96.00;;;;;;5087788;28;20468;-69
2023/09/04 10:37:52;;;;;;;4.60;3.15;;;24.50;95.90;;;;;;5088651;28;20035;-70
2023/09/04 10:40:19;;;;;;;5.88;3.60;;;24.50;92.60;;;;;;5086263;28;20084;-70
2023/09/04 10:42:45;;;;;;;5.03;3.40;;;24.50;94.70;;;;;;5088488;28;20369;-69
2023/09/04 10:45:15;;;;;;;6.35;3.80;;;24.70;91.90;;;;;;5086381;28;20071;-70
2023/09/04 10:47:46;;;;;;;6.03;3.70;;;24.70;91.50;;;;;;5089334;28;20066;-69
2023/09/04 10:50:28;;;;;;;5.43;3.60;;;24.80;91.20;;;;;;5088292;28;20040;-68
2023/09/04 10:52:55;;;;;;;4.15;3.15;;;24.80;93.20;;;;;;5079739;28;20491;-69
2023/09/04 10:55:21;;;;;;;7.47;3.70;;;24.80;92.40;;;;;;5086495;28;20032;-71
2023/09/04 10:58:00;;;;;;;6.57;3.72;;;24.80;92.20;;;;;;5089250;28;20144;-68
2023/09/04 11:00:37;;;;;;;4.93;3.33;;;25.00;93.00;;;;;;5089412;28;20466;-70
2023/09/04 11:03:12;;;;;;;5.07;3.65;;;25.10;92.10;;;;;;5085830;28;20032;-72
2023/09/04 11:06:02;;;;;;;5.75;3.67;;;25.40;92.00;;;;;;5088991;28;20031;-71
2023/09/04 11:08:28;;;;;;;;;;;25.40;92.30;;;;;;5089334;28;20123;-71
2023/09/04 11:11:05;;;;;;;6.28;4.22;;;25.40;90.20;;;;;;5086077;28;20019;-72
2023/09/04 11:13:38;;;;;;;4.50;3.35;;;25.40;83.80;;;;;;5088038;28;20758;-72
2023/09/04 11:16:06;;;;;;;5.30;3.63;;;25.50;85.90;;;;;;5067465;28;20050;-71
2023/09/04 11:18:34;;;;;;;6.20;3.90;;;25.50;87.80;;;;;;5086844;28;20044;-71
2023/09/04 11:21:01;;;;;;;4.97;3.63;;;25.60;89.20;;;;;;5068193;28;20028;-71
2023/09/04 11:23:27;;;;;;;5.97;3.53;;;25.70;83.70;;;;;;5068057;28;20025;-72
2023/09/04 11:25:54;;;;;;;4.40;3.10;;;25.70;85.90;;;;;;5068552;28;20620;-74
2023/09/04 11:28:25;;;;;;;5.38;3.10;;;25.80;84.40;;;;;;5082368;28;20104;-72
2023/09/04 11:30:58;;;;;;;5.70;2.97;;;25.90;83.10;;;;;;5087907;28;20024;-72
2023/09/04 11:33:29;;;;;;;5.25;3.53;;;26.00;85.20;;;;;;5088744;28;20035;-71
2023/09/04 11:36:02;;;;;;;4.47;3.33;;;26.30;85.70;;;;;;5088376;28;20043;-71
2023/09/04 11:38:32;;;;;;;5.97;3.60;;;26.60;86.60;;;;;;5087699;28;20028;-71
2023/09/04 11:40:58;;;;;;;;;;;26.80;85.50;;;;;;5087584;28;20020;-73
2023/09/04 11:43:26;;;;;;;4.47;3.30;;;27.10;87.10;;;;;;5087740;28;20352;-72
2023/09/04 11:45:55;;;;;;;7.65;3.70;;;27.10;83.00;;;;;;5079405;28;20036;-72
2023/09/04 11:48:25;;;;;;;5.57;3.00;;;26.90;81.20;;;;;;5086624;28;20056;-71
2023/09/04 11:50:51;;;;;;;5.33;3.50;;;26.90;84.30;;;;;;5070475;28;20364;-70
2023/09/04 11:53:17;;;;;;;4.68;2.92;;;26.80;79.00;;;;;;5086689;28;20159;-71
2023/09/04 11:55:43;;;;;;;5.38;3.50;;;26.80;80.70;;;;;;5087577;28;20039;-70
2023/09/04 11:58:10;;;;;;;5.75;3.38;;;26.90;82.30;;;;;;5069743;28;20119;-70
2023/09/04 12:00:35;;;;;;;3.97;2.95;;;26.80;79.40;;;;;;5080527;28;20123;-70
2023/09/04 12:03:03;;;;;;;5.45;3.40;;;26.90;77.40;;;;;;5084722;28;20111;-70
2023/09/04 12:05:29;;;;;;;9.32;3.30;;;27.10;78.80;;;;;;5088352;28;20123;-71
2023/09/04 12:07:55;;;;;;;5.50;3.72;;;27.20;79.10;;;;;;5086052;28;20108;-73
2023/09/04 12:10:21;;;;;;;7.50;3.40;;;27.30;78.70;;;;;;5087739;28;20117;-71
2023/09/04 12:12:47;;;;;;;4.88;3.47;;;27.20;77.00;;;;;;5088066;28;20425;-72
2023/09/04 12:15:25;;;;;;;7.20;3.28;;;26.80;77.90;;;;;;5084318;28;20118;-73
2023/09/04 12:17:51;;;;;;;5.10;3.22;;;26.80;79.20;;;;;;5080031;28;20040;-71
2023/09/04 12:20:17;;;;;;;4.30;3.17;;;26.70;77.20;;;;;;5087100;28;20028;-71
2023/09/04 12:22:56;;;;;;;5.68;3.42;;;26.90;78.40;;;;;;5086637;28;20059;-71
2023/09/04 12:25:25;;;;;;;4.47;3.20;;;27.10;73.30;;;;;;5085631;28;20059;-71
2023/09/04 12:27:51;;;;;;;8.07;3.83;;;27.40;79.50;;;;;;5085426;28;20094;-70
2023/09/04 12:30:17;;;;;;;5.85;3.90;;;27.30;72.10;;;;;;5084819;28;20354;-71
2023/09/04 12:32:43;;;;;;;4.97;3.40;;;27.00;71.40;;;;;;5086071;28;20066;-71
2023/09/04 12:35:09;;;;;;;5.28;3.42;;;27.00;69.00;;;;;;5085457;28;20040;-71
2023/09/04 12:37:38;;;;;;;5.18;3.63;;;26.80;67.20;;;;;;5083164;28;20028;-70
2023/09/04 12:40:05;;;;;;;4.97;3.25;;;27.00;68.20;;;;;;5086215;28;20032;-70
2023/09/04 12:42:30;;;;;;;5.38;3.78;;;27.00;69.40;;;;;;5090931;28;20085;-72